Time;durP1;ratioP1;P1;durP2;ratioP2;P2;SDS_P1;SDS_P2;PMS_P1;PMS_P2;Temp;Humidity;BMP_temperature;BMP_pressure;BME280_temperature;BME280_humidity;BME280_pressure;Samples;Min_cycle;Max_cycle;Signal;HPM_P1;HPM_P2
2023/05/26 00:00:09;;;;;;;34.90;6.03;;;11.70;99.90;;;;;;5055255;28;20075;-61
2023/05/26 00:02:39;;;;;;;26.23;5.75;;;11.50;99.90;;;;;;5056712;28;20025;-61
2023/05/26 00:05:06;;;;;;;29.55;5.55;;;11.40;99.90;;;;;;5063846;28;20143;-60
2023/05/26 00:07:32;;;;;;;28.70;6.10;;;11.40;99.90;;;;;;5061904;28;20048;-61
2023/05/26 00:09:58;;;;;;;26.90;6.25;;;11.60;99.90;;;;;;5059811;28;20136;-61
2023/05/26 00:12:24;;;;;;;27.08;5.60;;;11.60;99.90;;;;;;5055225;28;20119;-61
2023/05/26 00:14:50;;;;;;;21.90;5.55;;;11.50;99.90;;;;;;5058038;28;20135;-61
2023/05/26 00:17:16;;;;;;;32.13;5.82;;;11.50;99.90;;;;;;5062956;28;20105;-61
2023/05/26 00:19:43;;;;;;;31.05;5.70;;;11.50;99.90;;;;;;5056746;28;20106;-61
2023/05/26 00:22:10;;;;;;;26.17;5.78;;;11.60;99.90;;;;;;5054859;28;20032;-61
2023/05/26 00:24:36;;;;;;;28.65;6.05;;;11.50;99.90;;;;;;5055247;28;20046;-61
2023/05/26 00:27:01;;;;;;;24.25;5.43;;;11.40;99.90;;;;;;5056717;28;20028;-60
2023/05/26 00:29:27;;;;;;;26.17;5.95;;;11.30;99.90;;;;;;5062387;28;20036;-61
2023/05/26 00:31:52;;;;;;;27.83;6.20;;;11.20;99.90;;;;;;5060874;28;20478;-61
2023/05/26 00:34:19;;;;;;;27.15;5.35;;;11.30;99.90;;;;;;5055326;28;20498;-61
2023/05/26 00:36:44;;;;;;;22.77;5.32;;;11.20;99.90;;;;;;5062885;28;20035;-61
2023/05/26 00:39:10;;;;;;;26.60;6.63;;;11.20;99.90;;;;;;5063036;28;20044;-61
2023/05/26 00:41:36;;;;;;;21.50;5.30;;;11.10;99.90;;;;;;5059584;28;20567;-61
2023/05/26 00:44:01;;;;;;;26.88;6.22;;;11.00;99.90;;;;;;5054740;28;20045;-59
2023/05/26 00:46:29;;;;;;;33.33;6.35;;;10.90;99.90;;;;;;5054251;28;20720;-61
2023/05/26 00:48:54;;;;;;;26.42;5.90;;;11.00;99.90;;;;;;5062057;28;20056;-61
2023/05/26 00:51:20;;;;;;;25.95;5.88;;;11.10;99.90;;;;;;5056487;28;20118;-61
2023/05/26 00:53:46;;;;;;;25.90;6.43;;;11.10;99.90;;;;;;5052023;28;20047;-61
2023/05/26 00:56:14;;;;;;;28.15;5.90;;;11.00;99.90;;;;;;5054003;28;20557;-62
2023/05/26 00:58:40;;;;;;;23.63;5.28;;;10.80;99.90;;;;;;5051210;28;20132;-61
2023/05/26 01:01:05;;;;;;;28.50;6.15;;;10.70;99.90;;;;;;5055339;28;20182;-60
2023/05/26 01:03:31;;;;;;;30.25;6.03;;;10.70;99.90;;;;;;5050516;28;20056;-61
2023/05/26 01:05:57;;;;;;;28.85;6.60;;;10.70;99.90;;;;;;5050632;28;20033;-61
2023/05/26 01:08:22;;;;;;;28.98;6.40;;;10.60;99.90;;;;;;5049316;28;20037;-61
2023/05/26 01:10:48;;;;;;;24.48;6.43;;;10.70;99.90;;;;;;5055157;28;20051;-61
2023/05/26 01:13:24;;;;;;;22.40;6.05;;;10.80;99.90;;;;;;5055888;28;20170;-61
2023/05/26 01:16:05;;;;;;;24.25;5.85;;;10.80;99.90;;;;;;5053327;28;20480;-61
2023/05/26 01:18:41;;;;;;;28.15;6.15;;;10.70;99.90;;;;;;5057217;28;20086;-61
2023/05/26 01:21:12;;;;;;;22.48;5.90;;;10.40;99.90;;;;;;5056820;28;20036;-61
2023/05/26 01:23:53;;;;;;;31.27;5.70;;;10.50;99.90;;;;;;5054208;28;20068;-61
2023/05/26 01:26:37;;;;;;;30.70;6.55;;;10.50;99.90;;;;;;5046878;28;20036;-61
2023/05/26 01:29:20;;;;;;;28.83;5.63;;;10.50;99.90;;;;;;5051671;28;20048;-60
2023/05/26 01:31:46;;;;;;;27.40;5.90;;;10.70;99.90;;;;;;5054500;28;20036;-61
2023/05/26 01:34:12;;;;;;;32.90;5.80;;;10.30;99.90;;;;;;5053936;28;20032;-61
2023/05/26 01:36:37;;;;;;;24.05;5.72;;;10.20;99.90;;;;;;5053824;28;20495;-61
2023/05/26 01:39:04;;;;;;;30.92;5.93;;;10.10;99.90;;;;;;5047791;28;20041;-60
2023/05/26 01:41:56;;;;;;;28.92;6.05;;;10.20;99.90;;;;;;5052827;28;20119;-62
2023/05/26 01:44:29;;;;;;;29.45;6.35;;;10.10;99.90;;;;;;5052786;28;20047;-61
2023/05/26 01:46:55;;;;;;;32.38;6.05;;;10.10;99.90;;;;;;5058786;28;20032;-61
2023/05/26 01:49:26;;;;;;;33.28;6.07;;;10.00;99.90;;;;;;5051942;28;20036;-61
2023/05/26 01:52:00;;;;;;;27.05;5.72;;;10.10;99.90;;;;;;5049864;28;20044;-61
2023/05/26 01:54:28;;;;;;;26.60;5.78;;;10.20;99.90;;;;;;5052450;28;20032;-61
2023/05/26 01:56:54;;;;;;;32.53;5.28;;;10.10;99.90;;;;;;5052541;28;20709;-61
2023/05/26 01:59:21;;;;;;;29.38;6.10;;;9.90;99.90;;;;;;5047625;28;20412;-61
2023/05/26 02:01:47;;;;;;;29.00;5.80;;;9.80;99.90;;;;;;5054827;28;20477;-61
2023/05/26 02:04:13;;;;;;;31.33;5.85;;;9.90;99.90;;;;;;5043492;28;20116;-61
2023/05/26 02:06:39;;;;;;;33.63;6.57;;;10.00;99.90;;;;;;5049342;28;20123;-61
2023/05/26 02:09:05;;;;;;;28.00;5.53;;;9.80;99.90;;;;;;5059964;28;20062;-60
2023/05/26 02:11:32;;;;;;;34.38;6.53;;;9.60;99.90;;;;;;5057188;28;20528;-61
2023/05/26 02:13:57;;;;;;;31.30;6.10;;;9.60;99.90;;;;;;5060999;28;20111;-61
2023/05/26 02:16:24;;;;;;;27.80;5.60;;;9.60;99.90;;;;;;5059630;28;20116;-61
2023/05/26 02:18:50;;;;;;;34.58;6.63;;;9.70;99.90;;;;;;5054453;28;20322;-61
2023/05/26 02:21:15;;;;;;;29.45;6.50;;;9.70;99.90;;;;;;5048798;28;20128;-61
2023/05/26 02:23:44;;;;;;;28.38;6.32;;;9.70;99.90;;;;;;5058555;28;20116;-61
2023/05/26 02:26:10;;;;;;;27.00;6.03;;;9.60;99.90;;;;;;5056421;28;20055;-61
2023/05/26 02:28:39;;;;;;;30.83;5.65;;;9.60;99.90;;;;;;5056846;28;20039;-61
2023/05/26 02:31:05;;;;;;;35.28;6.40;;;9.60;99.90;;;;;;5057611;28;20040;-60
2023/05/26 02:33:31;;;;;;;31.10;5.72;;;9.60;99.90;;;;;;5061896;28;20029;-61
2023/05/26 02:35:57;;;;;;;24.70;5.68;;;9.60;99.90;;;;;;5063340;28;20041;-61
2023/05/26 02:38:22;;;;;;;27.20;5.80;;;9.60;99.90;;;;;;5060599;28;20041;-61
2023/05/26 02:40:49;;;;;;;27.13;6.18;;;9.40;99.90;;;;;;5060067;28;20388;-60
2023/05/26 02:43:15;;;;;;;32.60;6.95;;;9.20;99.90;;;;;;5058964;28;20037;-61
2023/05/26 02:45:41;;;;;;;29.00;6.18;;;9.30;99.90;;;;;;5055506;28;20174;-61
2023/05/26 02:48:07;;;;;;;28.58;6.53;;;9.30;99.90;;;;;;5063532;28;20543;-61
2023/05/26 02:50:32;;;;;;;32.78;6.07;;;9.50;99.90;;;;;;5065210;28;20109;-61
2023/05/26 02:52:58;;;;;;;29.33;6.13;;;9.40;99.90;;;;;;5054725;28;20492;-61
2023/05/26 02:55:24;;;;;;;35.42;6.95;;;9.50;99.90;;;;;;5062768;28;20033;-61
2023/05/26 02:57:51;;;;;;;35.92;6.63;;;9.30;99.90;;;;;;5057249;28;20122;-61
2023/05/26 03:00:17;;;;;;;24.52;5.85;;;9.30;99.90;;;;;;5058764;28;20041;-61
2023/05/26 03:02:43;;;;;;;39.38;7.45;;;9.10;99.90;;;;;;5053191;28;20069;-61
2023/05/26 03:05:09;;;;;;;27.38;6.57;;;9.30;99.90;;;;;;5055453;28;20052;-61
2023/05/26 03:07:34;;;;;;;41.00;6.70;;;9.20;99.90;;;;;;5054107;28;20036;-61
2023/05/26 03:10:00;;;;;;;33.63;6.50;;;9.20;99.90;;;;;;5052007;28;20400;-61
2023/05/26 03:12:25;;;;;;;32.50;6.28;;;9.50;99.90;;;;;;5057210;28;20358;-61
2023/05/26 03:14:51;;;;;;;33.60;6.50;;;9.30;99.90;;;;;;5060735;28;20407;-61
2023/05/26 03:17:17;;;;;;;36.28;7.05;;;9.20;99.90;;;;;;5054247;28;20431;-61
2023/05/26 03:19:44;;;;;;;27.38;5.95;;;9.20;99.90;;;;;;5060196;28;20032;-61
2023/05/26 03:22:10;;;;;;;27.58;6.15;;;9.10;99.90;;;;;;5058029;28;20653;-60
2023/05/26 03:24:36;;;;;;;31.85;7.05;;;9.10;99.90;;;;;;5053320;28;20040;-60
2023/05/26 03:27:02;;;;;;;32.28;6.18;;;9.00;99.90;;;;;;5050044;28;20033;-57
2023/05/26 03:29:29;;;;;;;32.75;6.30;;;9.20;99.90;;;;;;5049915;28;20033;-61
2023/05/26 03:31:55;;;;;;;35.70;6.90;;;9.20;99.90;;;;;;5056600;28;20036;-60
2023/05/26 03:34:21;;;;;;;37.08;7.22;;;9.10;99.90;;;;;;5057005;28;20048;-61
2023/05/26 03:36:48;;;;;;;34.05;6.85;;;9.30;99.90;;;;;;5064411;28;20396;-61
2023/05/26 03:39:15;;;;;;;33.97;6.63;;;9.30;99.90;;;;;;5062291;28;20116;-60
2023/05/26 03:41:40;;;;;;;35.75;6.80;;;9.30;99.90;;;;;;5051473;28;20020;-60
2023/05/26 03:44:07;;;;;;;34.88;7.10;;;9.40;99.90;;;;;;5053878;28;20094;-61
2023/05/26 03:46:32;;;;;;;37.03;6.85;;;9.40;99.90;;;;;;5053864;28;20120;-61
2023/05/26 03:48:58;;;;;;;32.67;6.82;;;9.40;99.90;;;;;;5053530;28;20453;-61
2023/05/26 03:51:24;;;;;;;26.05;5.55;;;9.30;99.90;;;;;;5055750;28;20033;-61
2023/05/26 03:53:50;;;;;;;36.15;6.82;;;9.50;99.90;;;;;;5051999;28;20027;-61
2023/05/26 03:56:15;;;;;;;29.70;6.22;;;9.60;99.90;;;;;;5052866;28;20116;-61
2023/05/26 03:58:41;;;;;;;38.95;7.78;;;9.60;99.90;;;;;;5053727;28;20082;-61
2023/05/26 04:01:07;;;;;;;43.90;7.50;;;9.60;99.90;;;;;;5062953;28;20154;-60
2023/05/26 04:03:33;;;;;;;35.38;6.95;;;9.70;99.90;;;;;;5058325;28;20071;-61
2023/05/26 04:06:00;;;;;;;32.42;6.75;;;9.60;99.90;;;;;;5054057;28;20052;-61
2023/05/26 04:08:26;;;;;;;42.55;7.28;;;9.50;99.90;;;;;;5050887;28;20637;-61
2023/05/26 04:10:51;;;;;;;41.80;8.00;;;9.60;99.90;;;;;;5053181;28;20496;-62
2023/05/26 04:13:17;;;;;;;35.22;7.25;;;9.60;99.90;;;;;;5055837;28;20052;-61
2023/05/26 04:15:42;;;;;;;54.17;8.32;;;9.90;99.90;;;;;;5056468;28;20408;-61
2023/05/26 04:18:08;;;;;;;33.17;7.93;;;9.80;99.90;;;;;;5054984;28;20323;-60
2023/05/26 04:20:34;;;;;;;35.45;8.13;;;9.60;99.90;;;;;;5055791;28;20072;-61
2023/05/26 04:22:59;;;;;;;42.92;9.02;;;9.80;99.90;;;;;;5052767;28;20040;-61
2023/05/26 04:25:25;;;;;;;39.20;8.45;;;10.00;99.90;;;;;;5059870;28;20037;-61
2023/05/26 04:27:56;;;;;;;29.45;7.57;;;10.10;99.90;;;;;;5061439;28;20094;-60
2023/05/26 04:30:22;;;;;;;36.63;7.70;;;10.10;99.90;;;;;;5059706;28;20475;-60
2023/05/26 04:32:48;;;;;;;32.25;8.27;;;9.80;99.90;;;;;;5055520;28;20040;-61
2023/05/26 04:35:13;;;;;;;35.00;8.55;;;9.80;99.90;;;;;;5062647;28;20459;-61
2023/05/26 04:37:40;;;;;;;41.50;8.57;;;9.80;99.90;;;;;;5062277;28;20041;-61
2023/05/26 04:40:09;;;;;;;40.53;7.75;;;9.90;99.90;;;;;;5060204;28;20033;-61
2023/05/26 04:42:37;;;;;;;40.50;9.35;;;9.70;99.90;;;;;;5048355;28;20485;-61
2023/05/26 04:45:04;;;;;;;35.05;7.93;;;9.60;99.90;;;;;;5047863;28;20120;-60
2023/05/26 04:47:34;;;;;;;42.90;8.30;;;9.70;99.90;;;;;;5053290;28;20493;-61
2023/05/26 04:50:01;;;;;;;31.23;8.55;;;9.70;99.90;;;;;;5058265;28;20036;-61
2023/05/26 04:52:27;;;;;;;39.30;8.18;;;9.70;99.90;;;;;;5052168;28;20112;-61
2023/05/26 04:54:53;;;;;;;42.17;8.25;;;9.90;99.90;;;;;;5055254;28;20506;-61
2023/05/26 04:57:19;;;;;;;31.48;7.53;;;10.30;99.90;;;;;;5048424;28;20036;-60
2023/05/26 04:59:45;;;;;;;39.40;6.97;;;10.10;99.90;;;;;;5057184;28;20369;-60
2023/05/26 05:02:11;;;;;;;40.60;8.18;;;9.80;99.90;;;;;;5051489;28;20052;-60
2023/05/26 05:04:36;;;;;;;36.78;8.40;;;10.00;99.90;;;;;;5056672;28;20052;-61
2023/05/26 05:07:02;;;;;;;32.47;8.07;;;10.00;99.90;;;;;;5061079;28;20037;-60
2023/05/26 05:09:28;;;;;;;33.85;7.53;;;9.90;99.90;;;;;;5050981;28;20043;-61
2023/05/26 05:11:53;;;;;;;33.05;6.68;;;9.80;99.90;;;;;;5055051;28;20029;-61
2023/05/26 05:14:19;;;;;;;38.90;8.52;;;9.80;99.90;;;;;;5048430;28;20037;-60
2023/05/26 05:16:46;;;;;;;31.00;7.28;;;10.00;99.90;;;;;;5054755;28;20056;-61
2023/05/26 05:19:11;;;;;;;33.00;7.43;;;10.00;99.90;;;;;;5055646;28;20116;-60
2023/05/26 05:21:37;;;;;;;35.50;7.45;;;10.00;99.90;;;;;;5054493;28;20341;-61
2023/05/26 05:24:03;;;;;;;30.40;7.43;;;10.00;99.90;;;;;;5053512;28;20024;-60
2023/05/26 05:26:28;;;;;;;30.90;6.55;;;10.10;99.90;;;;;;5049017;28;20428;-60
2023/05/26 05:28:54;;;;;;;42.42;7.97;;;10.00;99.90;;;;;;5055835;28;20036;-61
2023/05/26 05:31:19;;;;;;;36.03;7.40;;;10.10;99.90;;;;;;5053654;28;20039;-60
2023/05/26 05:33:45;;;;;;;42.55;8.52;;;10.20;99.90;;;;;;5058391;28;20028;-61
2023/05/26 05:36:11;;;;;;;30.70;6.60;;;10.20;99.90;;;;;;5055270;28;20028;-60
2023/05/26 05:38:36;;;;;;;38.72;7.60;;;10.00;99.90;;;;;;5046911;28;20090;-61
2023/05/26 05:41:02;;;;;;;31.60;6.82;;;10.00;99.90;;;;;;5050418;28;20041;-60
2023/05/26 05:43:28;;;;;;;33.30;7.53;;;10.00;99.90;;;;;;5052060;28;20230;-61
2023/05/26 05:45:54;;;;;;;31.00;6.93;;;10.30;99.90;;;;;;5058097;28;20583;-61
2023/05/26 05:48:20;;;;;;;35.90;7.82;;;10.40;99.90;;;;;;5051097;28;20116;-61
2023/05/26 05:50:45;;;;;;;29.02;6.55;;;9.80;99.90;;;;;;5051353;28;20134;-61
2023/05/26 05:53:11;;;;;;;35.28;7.68;;;10.20;99.90;;;;;;5052916;28;20036;-60
2023/05/26 05:55:37;;;;;;;36.15;7.47;;;10.40;99.90;;;;;;5052457;28;20036;-61
2023/05/26 05:58:02;;;;;;;31.85;8.05;;;10.30;99.90;;;;;;5051363;28;20725;-60
2023/05/26 06:00:28;;;;;;;27.65;7.85;;;10.30;99.90;;;;;;5046358;28;20193;-61
2023/05/26 06:02:53;;;;;;;34.38;7.70;;;10.70;99.90;;;;;;5058713;28;20111;-61
2023/05/26 06:05:19;;;;;;;31.63;7.95;;;10.80;99.90;;;;;;5060941;28;20064;-61
2023/05/26 06:07:45;;;;;;;37.67;7.95;;;10.60;99.90;;;;;;5058022;28;20300;-61
2023/05/26 06:10:10;;;;;;;32.78;7.88;;;10.70;99.90;;;;;;5050519;28;20025;-61
2023/05/26 06:12:36;;;;;;;32.35;8.07;;;10.40;99.90;;;;;;5050806;28;20786;-61
2023/05/26 06:15:02;;;;;;;26.73;8.30;;;10.50;99.90;;;;;;5054175;28;20032;-60
2023/05/26 06:17:28;;;;;;;33.42;8.10;;;10.70;99.90;;;;;;5055602;28;20062;-61
2023/05/26 06:19:53;;;;;;;35.47;7.88;;;10.70;99.90;;;;;;5044421;28;20396;-61
2023/05/26 06:22:19;;;;;;;30.70;7.97;;;10.50;99.90;;;;;;5050560;28;20029;-61
2023/05/26 06:24:44;;;;;;;32.25;8.32;;;10.80;99.90;;;;;;5048144;28;20036;-61
2023/05/26 06:27:10;;;;;;;46.17;14.40;;;10.80;99.90;;;;;;5044350;28;20037;-66
2023/05/26 06:29:35;;;;;;;35.63;11.15;;;10.90;99.90;;;;;;5054043;28;20656;-61
2023/05/26 06:32:01;;;;;;;41.40;9.18;;;11.10;99.90;;;;;;5050145;28;20053;-61
2023/05/26 06:34:27;;;;;;;28.70;7.68;;;11.20;99.90;;;;;;5050599;28;20033;-62
2023/05/26 06:36:54;;;;;;;31.02;8.38;;;11.20;99.90;;;;;;5054854;28;20073;-61
2023/05/26 06:39:20;;;;;;;41.63;8.48;;;11.10;99.90;;;;;;5048164;28;20120;-61
2023/05/26 06:41:46;;;;;;;32.70;8.90;;;10.90;99.90;;;;;;5052800;28;20483;-61
2023/05/26 06:44:12;;;;;;;37.78;8.43;;;11.00;99.90;;;;;;5054356;28;20040;-61
2023/05/26 06:46:38;;;;;;;32.78;8.88;;;11.20;99.90;;;;;;5050131;28;20564;-62
2023/05/26 06:49:03;;;;;;;37.33;8.63;;;11.40;99.90;;;;;;5051248;28;20120;-61
2023/05/26 06:51:29;;;;;;;38.63;9.95;;;11.50;99.90;;;;;;5044881;28;20374;-61
2023/05/26 06:53:55;;;;;;;33.30;8.52;;;11.30;99.90;;;;;;5048049;28;20499;-61
2023/05/26 06:56:21;;;;;;;36.47;8.55;;;11.30;99.90;;;;;;5054346;28;20426;-61
2023/05/26 06:58:47;;;;;;;33.95;7.95;;;11.60;99.90;;;;;;5050779;28;20093;-61
2023/05/26 07:01:12;;;;;;;35.03;7.15;;;11.70;99.90;;;;;;5052014;28;20041;-61
2023/05/26 07:03:38;;;;;;;33.03;7.95;;;11.60;99.90;;;;;;5056473;28;20135;-63
2023/05/26 07:06:03;;;;;;;35.03;7.57;;;11.70;99.90;;;;;;5054695;28;20036;-61
2023/05/26 07:08:29;;;;;;;35.70;7.90;;;11.90;99.90;;;;;;5053557;28;20058;-63
2023/05/26 07:10:55;;;;;;;28.50;7.35;;;12.10;99.90;;;;;;5056591;28;20037;-63
2023/05/26 07:13:20;;;;;;;32.30;7.50;;;12.10;99.90;;;;;;5055539;28;20042;-63
2023/05/26 07:15:46;;;;;;;31.23;7.20;;;11.90;99.90;;;;;;5053405;28;20515;-63
2023/05/26 07:18:12;;;;;;;27.92;7.25;;;11.90;99.90;;;;;;5052214;28;20040;-63
2023/05/26 07:20:38;;;;;;;30.23;7.53;;;12.10;99.90;;;;;;5052200;28;20040;-62
2023/05/26 07:23:04;;;;;;;30.27;7.90;;;12.20;99.90;;;;;;5047384;28;20045;-61
2023/05/26 07:25:30;;;;;;;33.65;7.68;;;12.30;99.90;;;;;;5059106;28;20044;-63
2023/05/26 07:27:55;;;;;;;40.72;7.32;;;12.30;99.90;;;;;;5054524;28;20045;-61
2023/05/26 07:30:21;;;;;;;34.47;7.90;;;12.30;99.90;;;;;;5049265;28;21033;-62
2023/05/26 07:32:47;;;;;;;37.60;7.90;;;12.20;99.90;;;;;;5047721;28;20029;-63
2023/05/26 07:35:12;;;;;;;33.88;7.88;;;12.60;99.90;;;;;;5052222;28;20036;-63
2023/05/26 07:37:38;;;;;;;32.75;7.75;;;12.50;99.90;;;;;;5056299;28;20043;-63
2023/05/26 07:40:04;;;;;;;39.53;7.82;;;12.80;99.90;;;;;;5044669;28;20041;-61
2023/05/26 07:42:31;;;;;;;28.30;6.13;;;12.90;99.90;;;;;;5049045;28;20063;-62
2023/05/26 07:44:56;;;;;;;28.95;6.75;;;13.10;99.90;;;;;;5049916;28;20537;-62
2023/05/26 07:47:22;;;;;;;35.53;7.45;;;13.00;99.90;;;;;;5052323;28;20115;-61
2023/05/26 07:49:48;;;;;;;40.30;8.65;;;13.30;99.90;;;;;;5053509;28;20041;-62
2023/05/26 07:52:15;;;;;;;26.48;7.55;;;12.70;99.90;;;;;;5050675;28;20292;-61
2023/05/26 07:54:40;;;;;;;30.75;6.72;;;12.90;99.90;;;;;;5054436;28;20037;-62
2023/05/26 07:57:06;;;;;;;39.85;7.90;;;12.80;99.90;;;;;;5053270;28;20040;-62
2023/05/26 07:59:32;;;;;;;31.50;6.93;;;13.00;99.90;;;;;;5047496;28;20057;-63
2023/05/26 08:01:57;;;;;;;35.38;7.45;;;13.00;99.90;;;;;;5049956;28;21066;-63
2023/05/26 08:04:23;;;;;;;28.17;7.43;;;12.90;99.90;;;;;;5047452;28;20036;-64
2023/05/26 08:06:48;;;;;;;29.58;7.20;;;13.30;99.90;;;;;;5053643;28;20060;-64
2023/05/26 08:09:14;;;;;;;30.48;7.32;;;13.60;99.90;;;;;;5051958;28;20028;-64
2023/05/26 08:11:40;;;;;;;35.58;8.05;;;13.40;99.90;;;;;;5054883;28;20032;-65
2023/05/26 08:14:06;;;;;;;34.80;7.43;;;13.40;99.90;;;;;;5051052;28;20504;-65
2023/05/26 08:16:31;;;;;;;32.95;7.53;;;13.80;99.90;;;;;;5049628;28;20036;-66
2023/05/26 08:18:57;;;;;;;29.67;6.80;;;13.50;99.90;;;;;;5050270;28;20139;-65
2023/05/26 08:21:23;;;;;;;27.25;6.43;;;13.60;99.90;;;;;;5052420;28;20044;-64
2023/05/26 08:23:48;;;;;;;28.50;7.72;;;13.60;99.90;;;;;;5056428;28;20044;-65
2023/05/26 08:26:14;;;;;;;34.55;7.10;;;13.50;99.90;;;;;;5053904;28;20041;-64
2023/05/26 08:28:40;;;;;;;30.58;7.28;;;13.90;99.90;;;;;;5051435;28;20061;-64
2023/05/26 08:31:05;;;;;;;27.40;6.35;;;14.00;99.90;;;;;;5048319;28;20049;-64
2023/05/26 08:33:31;;;;;;;33.35;7.22;;;14.20;99.90;;;;;;5046429;28;20488;-64
2023/05/26 08:35:57;;;;;;;28.38;7.05;;;14.00;99.90;;;;;;5046439;28;20399;-65
2023/05/26 08:38:22;;;;;;;27.52;6.30;;;14.10;99.90;;;;;;5048832;28;20033;-65
2023/05/26 08:40:51;;;;;;;30.38;6.80;;;14.10;99.90;;;;;;5051550;28;20044;-64
2023/05/26 08:43:22;;;;;;;30.65;7.38;;;14.00;99.90;;;;;;5051512;28;20497;-63
2023/05/26 08:45:50;;;;;;;28.63;6.80;;;14.20;99.90;;;;;;5048765;28;20041;-64
2023/05/26 08:48:17;;;;;;;31.23;7.25;;;14.60;99.90;;;;;;5052242;28;20078;-65
2023/05/26 08:50:46;;;;;;;26.45;6.32;;;14.70;99.90;;;;;;5053819;28;20047;-64
2023/05/26 08:53:12;;;;;;;33.85;7.32;;;14.50;99.90;;;;;;5049590;28;20025;-64
2023/05/26 08:55:37;;;;;;;31.17;6.57;;;14.60;99.90;;;;;;5047034;28;20036;-65
2023/05/26 08:58:04;;;;;;;30.98;7.68;;;14.80;99.90;;;;;;5045605;28;20033;-66
2023/05/26 09:00:31;;;;;;;29.17;6.97;;;14.90;99.90;;;;;;5049701;28;20048;-63
2023/05/26 09:02:58;;;;;;;27.80;5.78;;;14.70;99.90;;;;;;5046011;28;20138;-65
2023/05/26 09:05:24;;;;;;;30.35;6.97;;;14.90;99.90;;;;;;5039982;28;20064;-64
2023/05/26 09:07:50;;;;;;;27.38;6.15;;;14.60;99.90;;;;;;5044303;28;20216;-65
2023/05/26 09:10:32;;;;;;;28.00;7.25;;;14.50;99.90;;;;;;5046100;28;20400;-64
2023/05/26 09:13:03;;;;;;;30.73;6.40;;;14.40;99.90;;;;;;5053096;28;20036;-64
2023/05/26 09:15:29;;;;;;;29.33;6.47;;;14.60;99.90;;;;;;5051732;28;20107;-64
2023/05/26 09:18:02;;;;;;;24.00;6.03;;;14.80;99.90;;;;;;5049925;28;20112;-64
2023/05/26 09:20:29;;;;;;;23.58;6.47;;;14.80;99.90;;;;;;5046772;28;20497;-65
2023/05/26 09:22:58;;;;;;;31.23;6.68;;;15.10;99.90;;;;;;5053094;28;20037;-65
2023/05/26 09:25:34;;;;;;;29.90;6.60;;;14.90;99.90;;;;;;5048314;28;20072;-65
2023/05/26 09:28:03;;;;;;;31.85;6.22;;;15.00;99.90;;;;;;5046356;28;20040;-65
2023/05/26 09:30:36;;;;;;;26.70;6.78;;;15.10;99.90;;;;;;5048412;28;20036;-64
2023/05/26 09:33:08;;;;;;;27.50;6.57;;;15.30;99.90;;;;;;5054524;28;20037;-63
2023/05/26 09:35:53;;;;;;;32.45;7.65;;;15.40;99.90;;;;;;5051736;28;20048;-64
2023/05/26 09:38:20;;;;;;;27.95;6.38;;;15.90;99.90;;;;;;5052353;28;20155;-63
2023/05/26 09:40:47;;;;;;;29.98;6.50;;;15.50;99.90;;;;;;5050105;28;20131;-65
2023/05/26 09:43:15;;;;;;;29.75;7.35;;;15.60;99.90;;;;;;5053846;28;20040;-64
2023/05/26 09:45:41;;;;;;;29.05;6.82;;;16.20;99.90;;;;;;5046794;28;20528;-64
2023/05/26 09:48:09;;;;;;;24.77;6.78;;;15.90;99.90;;;;;;5050882;28;20028;-64
2023/05/26 09:50:36;;;;;;;30.73;6.40;;;15.90;99.90;;;;;;5050410;28;20771;-58
2023/05/26 09:53:04;;;;;;;24.23;7.15;;;15.80;99.90;;;;;;5048894;28;20041;-57
2023/05/26 09:55:30;;;;;;;30.52;7.82;;;15.60;99.90;;;;;;5050556;28;20052;-58
2023/05/26 09:58:04;;;;;;;26.92;7.88;;;15.60;99.90;;;;;;5048741;28;20031;-58
2023/05/26 10:00:31;;;;;;;30.73;7.55;;;16.00;99.90;;;;;;5050716;28;20071;-58
2023/05/26 10:02:57;;;;;;;31.08;6.45;;;15.90;99.90;;;;;;5049591;28;20041;-58
2023/05/26 10:05:24;;;;;;;28.42;6.85;;;16.00;99.90;;;;;;5052994;28;20689;-57
2023/05/26 10:07:52;;;;;;;33.13;7.57;;;16.00;99.90;;;;;;5051666;28;20426;-57
2023/05/26 10:10:18;;;;;;;31.00;6.90;;;16.10;99.90;;;;;;5049535;28;20050;-58
2023/05/26 10:12:44;;;;;;;24.13;6.38;;;16.20;99.90;;;;;;5054590;28;20102;-57
2023/05/26 10:15:10;;;;;;;23.33;6.57;;;15.80;99.90;;;;;;5048784;28;20032;-57
2023/05/26 10:17:36;;;;;;;26.02;6.47;;;16.20;99.90;;;;;;5051196;28;20029;-57
2023/05/26 10:20:03;;;;;;;26.77;5.95;;;15.90;99.90;;;;;;5045771;28;20040;-56
2023/05/26 10:22:55;;;;;;;30.55;6.65;;;16.00;99.90;;;;;;5050454;28;20426;-57
2023/05/26 10:25:46;;;;;;;31.05;7.18;;;16.10;99.90;;;;;;5038960;28;20033;-58
2023/05/26 10:28:36;;;;;;;28.10;7.32;;;16.50;99.90;;;;;;5045824;28;20049;-58
2023/05/26 10:31:02;;;;;;;28.95;6.68;;;16.60;99.90;;;;;;5050049;28;20033;-57
2023/05/26 10:33:42;;;;;;;28.52;7.38;;;16.50;99.90;;;;;;5045423;28;20060;-58
2023/05/26 10:36:12;;;;;;;29.88;7.53;;;16.60;99.90;;;;;;5041127;28;20048;-57
2023/05/26 10:38:43;;;;;;;45.15;18.30;;;16.10;99.90;;;;;;5041990;28;20036;-57
2023/05/26 10:41:11;;;;;;;26.60;7.50;;;16.20;99.90;;;;;;5045395;28;20040;-58
2023/05/26 10:43:37;;;;;;;27.58;7.68;;;16.50;99.90;;;;;;5057158;28;20707;-58
2023/05/26 10:46:04;;;;;;;30.48;6.88;;;16.50;99.90;;;;;;5054955;28;20078;-57
2023/05/26 10:48:38;;;;;;;29.50;6.65;;;16.50;99.90;;;;;;5058507;28;20380;-58
2023/05/26 10:51:05;;;;;;;22.42;6.32;;;16.70;99.90;;;;;;5055130;28;20044;-57
2023/05/26 10:53:45;;;;;;;27.33;6.90;;;16.70;99.90;;;;;;5054492;28;20052;-58
2023/05/26 10:56:13;;;;;;;22.65;6.03;;;16.80;99.90;;;;;;5055039;28;20033;-58
2023/05/26 10:58:46;;;;;;;31.15;7.95;;;16.70;99.90;;;;;;5057086;28;20044;-57
2023/05/26 11:01:19;;;;;;;28.60;7.10;;;16.30;99.90;;;;;;5056762;28;20037;-57
2023/05/26 11:04:01;;;;;;;35.90;7.22;;;16.40;99.90;;;;;;5054113;28;20123;-57
2023/05/26 11:06:51;;;;;;;25.48;6.57;;;16.60;99.90;;;;;;5061153;28;20032;-58
2023/05/26 11:09:21;;;;;;;25.75;6.80;;;17.10;99.90;;;;;;5054113;28;20033;-58
2023/05/26 11:11:57;;;;;;;19.48;6.05;;;16.70;99.90;;;;;;5057056;28;20037;-57
2023/05/26 11:14:29;;;;;;;23.23;6.78;;;17.00;99.90;;;;;;5053780;28;20377;-58
2023/05/26 11:16:56;;;;;;;23.55;6.63;;;16.60;99.90;;;;;;5055309;28;20538;-58
2023/05/26 11:19:34;;;;;;;30.40;6.53;;;16.50;99.90;;;;;;5054021;28;20072;-57
2023/05/26 11:22:07;;;;;;;22.80;6.00;;;17.30;99.90;;;;;;5056066;28;20119;-58
2023/05/26 11:24:34;;;;;;;24.92;6.63;;;16.90;99.90;;;;;;5056207;28;20029;-57
2023/05/26 11:27:01;;;;;;;23.00;6.22;;;17.10;99.90;;;;;;5056235;28;20099;-58
2023/05/26 11:29:27;;;;;;;24.38;6.47;;;17.10;99.90;;;;;;5055351;28;20036;-58
2023/05/26 11:31:53;;;;;;;25.10;5.63;;;17.10;99.90;;;;;;5059018;28;20424;-58
2023/05/26 11:34:19;;;;;;;29.58;6.78;;;17.30;99.90;;;;;;5049079;28;20093;-59
2023/05/26 11:36:49;;;;;;;21.35;6.20;;;16.80;99.90;;;;;;5057153;28;20483;-58
2023/05/26 11:39:15;;;;;;;25.80;6.05;;;17.20;99.90;;;;;;5046477;28;20025;-57
2023/05/26 11:41:41;;;;;;;29.00;6.20;;;17.20;99.90;;;;;;5055378;28;20124;-57
2023/05/26 11:44:08;;;;;;;20.92;6.28;;;17.10;99.90;;;;;;5047244;28;20041;-56
2023/05/26 11:46:37;;;;;;;22.45;5.18;;;17.00;99.90;;;;;;5050804;28;20041;-56
2023/05/26 11:49:03;;;;;;;23.75;5.60;;;17.00;99.90;;;;;;5054606;28;20107;-57
2023/05/26 11:51:31;;;;;;;22.83;5.55;;;17.20;99.90;;;;;;5057526;28;20032;-56
2023/05/26 11:53:58;;;;;;;25.63;6.13;;;17.20;99.90;;;;;;5054413;28;20039;-56
2023/05/26 11:56:35;;;;;;;24.35;5.47;;;17.20;99.90;;;;;;5050972;28;20609;-56
2023/05/26 11:59:02;;;;;;;21.90;5.53;;;17.50;99.90;;;;;;5058127;28;20075;-57
2023/05/26 12:01:29;;;;;;;20.30;5.28;;;17.50;99.90;;;;;;5050905;28;20187;-56
2023/05/26 12:03:56;;;;;;;21.13;6.05;;;17.50;99.90;;;;;;5057135;28;20051;-57
2023/05/26 12:06:24;;;;;;;26.30;5.88;;;17.50;99.90;;;;;;5050633;28;20041;-57
2023/05/26 12:08:50;;;;;;;20.67;5.47;;;17.40;99.90;;;;;;5050333;28;20415;-57
2023/05/26 12:11:18;;;;;;;22.77;5.38;;;17.50;99.90;;;;;;5051292;28;20667;-57
2023/05/26 12:13:45;;;;;;;18.52;5.20;;;17.50;99.90;;;;;;5059740;28;20427;-57
2023/05/26 12:16:18;;;;;;;16.85;4.82;;;17.30;99.90;;;;;;5053071;28;20715;-57
2023/05/26 12:18:44;;;;;;;;;;;17.20;99.90;;;;;;5044712;28;20044;-57
2023/05/26 12:21:10;;;;;;;19.85;5.22;;;17.30;99.90;;;;;;5047869;28;19920;-57
2023/05/26 12:23:35;;;;;;;21.13;5.28;;;17.50;99.90;;;;;;5051135;28;20047;-58
2023/05/26 12:26:12;;;;;;;16.77;4.80;;;17.50;99.90;;;;;;5048563;28;20040;-57
2023/05/26 12:28:43;;;;;;;14.25;4.43;;;17.50;99.90;;;;;;5054457;28;20063;-57
2023/05/26 12:31:09;;;;;;;22.10;5.13;;;17.70;99.90;;;;;;5054720;28;20037;-57
2023/05/26 12:33:35;;;;;;;23.17;4.72;;;17.80;99.90;;;;;;5055375;28;20064;-58
2023/05/26 12:36:01;;;;;;;18.77;4.75;;;17.90;99.90;;;;;;5044658;28;20128;-57
2023/05/26 12:38:27;;;;;;;13.73;4.63;;;17.90;99.90;;;;;;5048434;28;20079;-58
2023/05/26 12:40:53;;;;;;;23.58;5.00;;;17.70;99.90;;;;;;5052280;28;20029;-57